Time;durP1;ratioP1;P1;durP2;ratioP2;P2;SDS_P1;SDS_P2;PMS_P1;PMS_P2;Temp;Humidity;BMP_temperature;BMP_pressure;BME280_temperature;BME280_humidity;BME280_pressure;Samples;Min_cycle;Max_cycle;Signal;HPM_P1;HPM_P2
2022/03/30 00:02:09;;;;;;;43.13;18.45;;;;;;;7.67;100.00;100435.22;4988859;28;20373;-77
2022/03/30 00:04:36;;;;;;;42.55;18.63;;;;;;;7.74;100.00;100439.25;4980029;28;20033;-77
2022/03/30 00:07:03;;;;;;;47.65;18.17;;;;;;;7.72;100.00;100435.75;4986409;28;20037;-77
2022/03/30 00:09:29;;;;;;;48.05;18.42;;;;;;;7.65;100.00;100435.34;4967828;28;20125;-77
2022/03/30 00:11:56;;;;;;;47.80;18.98;;;;;;;7.66;100.00;100425.31;5006382;28;20133;-77
2022/03/30 00:14:21;;;;;;;44.80;19.33;;;;;;;7.70;100.00;100440.44;4992255;28;20040;-77
2022/03/30 00:16:48;;;;;;;42.78;17.05;;;;;;;7.58;100.00;100425.03;5000057;28;20042;-77
2022/03/30 00:19:15;;;;;;;45.20;18.33;;;;;;;7.53;100.00;100423.50;4982011;28;20044;-77
2022/03/30 00:21:41;;;;;;;39.80;18.73;;;;;;;7.48;100.00;100435.72;4998074;28;20039;-75
2022/03/30 00:24:07;;;;;;;43.92;20.08;;;;;;;7.45;100.00;100419.59;4991368;28;20072;-77
2022/03/30 00:26:33;;;;;;;48.22;18.65;;;;;;;7.45;100.00;100425.91;5002825;28;20038;-76
2022/03/30 00:28:58;;;;;;;43.17;18.40;;;;;;;7.35;100.00;100431.16;4993715;28;20030;-76
2022/03/30 00:31:24;;;;;;;41.50;18.80;;;;;;;7.32;100.00;100412.31;4969646;28;20395;-77
2022/03/30 00:33:51;;;;;;;48.28;20.20;;;;;;;7.29;100.00;100411.66;5003745;28;20034;-76
2022/03/30 00:36:17;;;;;;;44.88;18.58;;;;;;;7.24;100.00;100422.88;4984896;28;20033;-76
2022/03/30 00:38:42;;;;;;;50.70;19.70;;;;;;;7.14;100.00;100419.09;4984497;28;20475;-76
2022/03/30 00:41:08;;;;;;;40.70;17.63;;;;;;;7.18;100.00;100424.22;4979567;28;20034;-76
2022/03/30 00:43:34;;;;;;;47.53;17.73;;;;;;;7.10;100.00;100420.28;4989201;28;20053;-75
2022/03/30 00:45:59;;;;;;;43.45;19.02;;;;;;;7.04;100.00;100420.75;4972983;28;20057;-76
2022/03/30 00:48:25;;;;;;;55.40;18.42;;;;;;;6.90;100.00;100422.56;4976357;28;20378;-76
2022/03/30 00:50:50;;;;;;;52.85;18.50;;;;;;;6.83;100.00;100415.84;4974619;28;20053;-76
2022/03/30 00:53:16;;;;;;;43.92;17.73;;;;;;;6.78;100.00;100416.16;4967445;28;20026;-77
2022/03/30 00:55:42;;;;;;;45.17;17.70;;;;;;;6.77;100.00;100425.31;4984445;28;20034;-77
2022/03/30 00:58:09;;;;;;;46.95;18.13;;;;;;;6.73;100.00;100415.63;4987849;28;20053;-77
2022/03/30 01:00:35;;;;;;;40.80;17.10;;;;;;;6.66;100.00;100411.59;5003340;28;20121;-77
2022/03/30 01:03:00;;;;;;;46.75;16.75;;;;;;;6.74;100.00;100416.47;4983741;28;20177;-76
2022/03/30 01:05:26;;;;;;;48.47;17.45;;;;;;;6.55;100.00;100415.03;4997495;28;20470;-77
2022/03/30 01:07:52;;;;;;;39.58;17.35;;;;;;;6.51;100.00;100405.38;5004778;28;20033;-76
2022/03/30 01:10:18;;;;;;;51.03;17.45;;;;;;;6.41;100.00;100396.09;4992686;28;20021;-76
2022/03/30 01:12:46;;;;;;;46.40;18.58;;;;;;;6.37;100.00;100403.59;4997643;28;20046;-76
2022/03/30 01:15:13;;;;;;;48.60;18.60;;;;;;;6.33;100.00;100393.94;4993225;28;20030;-76
2022/03/30 01:17:40;;;;;;;52.38;19.10;;;;;;;6.26;100.00;100398.03;4986437;28;20460;-77
2022/03/30 01:20:08;;;;;;;47.22;19.02;;;;;;;6.14;100.00;100382.56;4967851;28;20029;-76
2022/03/30 01:22:34;;;;;;;45.67;18.67;;;;;;;6.14;100.00;100388.88;4991450;28;20132;-77
2022/03/30 01:25:00;;;;;;;45.53;18.77;;;;;;;6.16;100.00;100386.03;4966615;28;20149;-76
2022/03/30 01:27:26;;;;;;;56.17;19.65;;;;;;;5.94;100.00;100378.47;4989445;28;20478;-77
2022/03/30 01:32:36;;;;;;;50.95;19.88;;;;;;;5.95;100.00;100383.78;4979853;28;20038;-77
2022/03/30 01:35:04;;;;;;;54.55;19.77;;;;;;;5.91;100.00;100381.38;4970185;28;20027;-77
2022/03/30 01:37:31;;;;;;;41.83;18.67;;;;;;;5.85;100.00;100372.69;4981569;28;20038;-77
2022/03/30 01:39:59;;;;;;;45.83;18.20;;;;;;;5.86;100.00;100371.69;4964221;28;20118;-77
2022/03/30 01:42:27;;;;;;;47.95;19.55;;;;;;;5.79;100.00;100366.75;4988431;28;20034;-77
2022/03/30 01:44:54;;;;;;;52.17;20.20;;;;;;;5.78;100.00;100371.31;4960777;28;20379;-77
2022/03/30 01:47:20;;;;;;;44.58;19.02;;;;;;;5.66;100.00;100370.31;4985779;28;20038;-77
2022/03/30 01:49:46;;;;;;;46.65;18.88;;;;;;;5.78;100.00;100367.75;4978650;28;20074;-77
2022/03/30 01:52:14;;;;;;;53.63;19.20;;;;;;;5.76;100.00;100372.44;4959853;28;20054;-77
2022/03/30 01:54:40;;;;;;;42.72;18.67;;;;;;;5.86;100.00;100368.97;4979175;28;20038;-77
2022/03/30 01:57:07;;;;;;;55.85;19.17;;;;;;;5.71;100.00;100356.44;4972044;28;20041;-77
2022/03/30 01:59:33;;;;;;;55.03;19.92;;;;;;;5.60;100.00;100357.13;4978426;28;20035;-77
2022/03/30 02:02:00;;;;;;;47.22;18.77;;;;;;;5.70;100.00;100360.97;4990780;28;20045;-77
2022/03/30 02:04:26;;;;;;;43.70;18.45;;;;;;;5.59;100.00;100357.22;4986343;28;20093;-77
2022/03/30 02:06:51;;;;;;;51.75;18.92;;;;;;;5.48;100.00;100338.97;4991370;28;20486;-76
2022/03/30 02:09:17;;;;;;;47.75;17.73;;;;;;;5.50;100.00;100353.28;4987796;28;20045;-76
2022/03/30 02:11:42;;;;;;;48.72;17.77;;;;;;;5.40;100.00;100344.03;4982557;28;20040;-76
2022/03/30 02:14:09;;;;;;;47.30;18.25;;;;;;;5.40;100.00;100341.31;4989818;28;20042;-76
2022/03/30 02:16:34;;;;;;;47.28;18.20;;;;;;;5.52;100.00;100352.19;4967044;28;20125;-76
2022/03/30 02:19:00;;;;;;;50.22;17.10;;;;;;;5.65;100.00;100354.13;4978404;28;20122;-76
2022/03/30 02:21:26;;;;;;;45.47;18.38;;;;;;;5.42;100.00;100355.66;4981859;28;20030;-76
2022/03/30 02:23:51;;;;;;;51.22;17.75;;;;;;;5.38;100.00;100354.97;4983165;28;20055;-75
2022/03/30 02:26:17;;;;;;;50.20;17.77;;;;;;;5.43;100.00;100349.25;4984409;28;20027;-75
2022/03/30 02:28:44;;;;;;;54.08;17.88;;;;;;;5.40;100.00;100333.16;4972158;28;20482;-76
2022/03/30 02:31:12;;;;;;;45.58;17.55;;;;;;;5.47;100.00;100338.06;4987293;28;20109;-76
2022/03/30 02:33:38;;;;;;;46.97;17.88;;;;;;;5.33;100.00;100339.00;4976967;28;20101;-76
2022/03/30 02:36:04;;;;;;;49.20;17.83;;;;;;;5.34;100.00;100335.31;4982893;28;20419;-76
2022/03/30 02:38:29;;;;;;;40.72;17.08;;;;;;;5.30;100.00;100313.91;4984338;28;20031;-77
2022/03/30 02:40:55;;;;;;;39.15;17.20;;;;;;;5.30;100.00;100320.19;4982852;28;20034;-77
2022/03/30 02:43:20;;;;;;;41.42;17.02;;;;;;;5.40;100.00;100325.88;4980281;28;20061;-77
2022/03/30 02:45:47;;;;;;;45.22;17.38;;;;;;;5.31;100.00;100326.47;4982690;28;20094;-77
2022/03/30 02:48:19;;;;;;;49.67;17.50;;;;;;;5.26;100.00;100320.47;4978652;28;20041;-76
2022/03/30 02:50:49;;;;;;;49.15;17.50;;;;;;;5.30;100.00;100314.75;4985867;28;20117;-76
2022/03/30 02:53:16;;;;;;;44.00;18.23;;;;;;;5.30;100.00;100319.31;4966392;28;20038;-77
2022/03/30 02:55:41;;;;;;;46.53;17.17;;;;;;;5.25;100.00;100307.91;4984358;28;20473;-77
2022/03/30 02:58:08;;;;;;;44.58;17.80;;;;;;;5.26;100.00;100315.94;4996659;28;20085;-77
2022/03/30 03:00:33;;;;;;;51.95;18.92;;;;;;;5.19;100.00;100309.16;4986422;28;20061;-77
2022/03/30 03:03:02;;;;;;;49.40;17.55;;;;;;;5.24;100.00;100317.00;4991813;28;20051;-77
2022/03/30 03:05:31;;;;;;;47.95;17.02;;;;;;;5.17;100.00;100302.97;4985628;28;20535;-77
2022/03/30 03:07:59;;;;;;;49.78;17.42;;;;;;;5.21;100.00;100306.34;4988854;28;20529;-77
2022/03/30 03:10:25;;;;;;;46.30;17.23;;;;;;;5.21;100.00;100296.34;4985015;28;20121;-77
2022/03/30 03:12:52;;;;;;;42.65;17.13;;;;;;;5.15;100.00;100286.78;4983964;28;20034;-77
2022/03/30 03:15:18;;;;;;;40.53;17.52;;;;;;;5.24;100.00;100293.44;4983980;28;20034;-77
2022/03/30 03:17:43;;;;;;;47.85;16.98;;;;;;;5.23;100.00;100293.53;4984048;28;20049;-77
2022/03/30 03:20:11;;;;;;;51.33;17.00;;;;;;;5.20;100.00;100296.47;4996364;28;20049;-77
2022/03/30 03:22:36;;;;;;;48.10;17.90;;;;;;;5.14;100.00;100293.19;4981327;28;20031;-77
2022/03/30 03:25:02;;;;;;;56.92;17.70;;;;;;;5.13;100.00;100290.56;4999943;28;20061;-77
2022/03/30 03:27:29;;;;;;;50.45;17.02;;;;;;;5.09;100.00;100289.91;5007285;28;20042;-77
2022/03/30 03:29:54;;;;;;;49.70;17.27;;;;;;;5.13;100.00;100294.16;4988346;28;20033;-77
2022/03/30 03:32:20;;;;;;;59.70;17.90;;;;;;;5.08;100.00;100288.19;4983012;28;20046;-77
2022/03/30 03:34:47;;;;;;;48.17;17.42;;;;;;;5.07;100.00;100293.69;5005675;28;20034;-78
2022/03/30 03:37:12;;;;;;;48.70;18.30;;;;;;;5.05;100.00;100279.34;4978297;28;20038;-75
2022/03/30 03:39:37;;;;;;;43.33;16.13;;;;;;;4.96;100.00;100289.81;4985028;28;20099;-75
2022/03/30 03:42:03;;;;;;;50.85;17.77;;;;;;;4.96;100.00;100291.69;4986264;28;20383;-76
2022/03/30 03:44:28;;;;;;;62.33;18.90;;;;;;;4.93;100.00;100284.59;5001917;28;20037;-76
2022/03/30 03:46:55;;;;;;;43.55;16.98;;;;;;;4.92;100.00;100287.41;5009578;28;20034;-77
2022/03/30 03:49:21;;;;;;;44.50;18.00;;;;;;;4.89;100.00;100291.22;4992068;28;20040;-76
2022/03/30 03:51:46;;;;;;;37.58;16.98;;;;;;;4.89;100.00;100280.34;4997855;28;20452;-77
2022/03/30 03:54:12;;;;;;;51.33;17.80;;;;;;;4.89;100.00;100288.50;4986203;28;20044;-76
2022/03/30 03:56:37;;;;;;;44.90;17.60;;;;;;;4.88;100.00;100292.16;5006546;28;20123;-76
2022/03/30 03:59:04;;;;;;;56.50;17.73;;;;;;;4.92;100.00;100285.59;4985314;28;20068;-77
2022/03/30 04:01:30;;;;;;;47.28;16.60;;;;;;;4.89;100.00;100280.34;4985981;28;20065;-77
2022/03/30 04:03:56;;;;;;;55.83;18.27;;;;;;;4.76;100.00;100277.56;4989212;28;20065;-77
2022/03/30 04:06:22;;;;;;;43.05;18.80;;;;;;;4.78;100.00;100272.03;4977450;28;20076;-77
2022/03/30 04:08:48;;;;;;;44.22;17.85;;;;;;;4.73;100.00;100280.47;5005114;28;20034;-77
2022/03/30 04:11:14;;;;;;;51.30;16.75;;;;;;;4.69;100.00;100276.22;5002323;28;20501;-77
2022/03/30 04:13:41;;;;;;;68.72;18.90;;;;;;;4.64;100.00;100269.34;4970926;28;20036;-76
2022/03/30 04:16:06;;;;;;;49.20;17.60;;;;;;;4.59;100.00;100251.53;4998649;28;20038;-77
2022/03/30 04:18:32;;;;;;;57.10;18.85;;;;;;;4.65;100.00;100255.69;4983337;28;20645;-76
2022/03/30 04:20:57;;;;;;;46.75;18.38;;;;;;;4.59;100.00;100261.50;4985558;28;20550;-76
2022/03/30 04:23:23;;;;;;;52.45;19.27;;;;;;;4.57;100.00;100258.88;4985955;28;20050;-76
2022/03/30 04:25:48;;;;;;;54.05;20.08;;;;;;;4.56;100.00;100269.84;4988161;28;20034;-77
2022/03/30 04:28:15;;;;;;;53.03;18.27;;;;;;;4.50;100.00;100245.84;4989321;28;20133;-76
2022/03/30 04:30:41;;;;;;;48.38;17.80;;;;;;;4.41;100.00;100255.41;4979393;28;20435;-77
2022/03/30 04:33:06;;;;;;;52.70;19.10;;;;;;;4.31;100.00;100256.94;4982720;28;20054;-76
2022/03/30 04:35:32;;;;;;;52.42;19.02;;;;;;;4.21;100.00;100257.56;4998529;28;20073;-76
2022/03/30 04:37:58;;;;;;;65.78;19.88;;;;;;;4.12;100.00;100255.41;4975853;28;20466;-76
2022/03/30 04:40:25;;;;;;;47.78;19.27;;;;;;;4.16;100.00;100258.78;4985653;28;20575;-76
2022/03/30 04:42:51;;;;;;;50.75;17.63;;;;;;;4.09;100.00;100249.31;4990364;28;20030;-76
2022/03/30 04:45:18;;;;;;;50.15;19.65;;;;;;;4.01;100.00;100256.06;4983976;28;20103;-76
2022/03/30 04:47:44;;;;;;;57.30;18.10;;;;;;;3.90;100.00;100249.56;4982375;28;20099;-75
2022/03/30 04:50:10;;;;;;;53.97;19.63;;;;;;;3.95;100.00;100255.56;4979504;28;20033;-74
2022/03/30 04:52:36;;;;;;;49.90;18.60;;;;;;;3.81;100.00;100249.16;4986100;28;20046;-74
2022/03/30 04:55:04;;;;;;;49.58;19.00;;;;;;;3.91;100.00;100254.03;4987894;28;20042;-77
2022/03/30 04:57:30;;;;;;;51.65;18.98;;;;;;;3.78;100.00;100254.75;4992416;28;20604;-76
2022/03/30 04:59:56;;;;;;;53.65;18.60;;;;;;;3.89;100.00;100262.25;4964948;28;20108;-77
2022/03/30 05:02:22;;;;;;;45.92;19.13;;;;;;;3.85;100.00;100264.28;4989898;28;20172;-76
2022/03/30 05:04:48;;;;;;;45.90;18.00;;;;;;;3.80;100.00;100260.09;4983086;28;20030;-75
2022/03/30 05:07:14;;;;;;;54.50;18.60;;;;;;;3.67;100.00;100254.53;4977669;28;20045;-77
2022/03/30 05:09:40;;;;;;;50.90;19.85;;;;;;;3.63;100.00;100251.16;4993906;28;20038;-76
2022/03/30 05:12:06;;;;;;;55.28;18.70;;;;;;;3.58;100.00;100258.66;4984235;28;20508;-76
2022/03/30 05:14:35;;;;;;;57.13;19.13;;;;;;;3.62;100.00;100257.53;4977418;28;20427;-76
2022/03/30 05:17:01;;;;;;;53.53;18.40;;;;;;;3.45;100.00;100263.94;4971299;28;20464;-76
2022/03/30 05:19:27;;;;;;;59.58;19.42;;;;;;;3.47;100.00;100261.16;4966307;28;20034;-75
2022/03/30 05:21:52;;;;;;;51.70;18.25;;;;;;;3.37;100.00;100262.66;4988082;28;20057;-76
2022/03/30 05:24:18;;;;;;;53.45;19.08;;;;;;;3.42;100.00;100269.53;5002397;28;20054;-76
2022/03/30 05:26:44;;;;;;;73.28;20.67;;;;;;;3.44;100.00;100272.16;4993221;28;20085;-76
2022/03/30 05:29:09;;;;;;;64.82;20.75;;;;;;;3.34;100.00;100262.84;5003585;28;20038;-76
2022/03/30 05:31:35;;;;;;;63.97;19.30;;;;;;;3.31;100.00;100269.28;4980937;28;20129;-76
2022/03/30 05:34:00;;;;;;;89.13;22.10;;;;;;;3.36;100.00;100264.50;4969069;28;20465;-75
2022/03/30 05:36:26;;;;;;;60.40;20.02;;;;;;;3.27;100.00;100260.47;4993283;28;20132;-77
2022/03/30 05:38:51;;;;;;;61.17;20.75;;;;;;;3.33;100.00;100263.78;4986926;28;20046;-77
2022/03/30 05:41:18;;;;;;;61.50;20.27;;;;;;;3.27;100.00;100257.78;5000464;28;20027;-77
2022/03/30 05:43:43;;;;;;;73.20;21.30;;;;;;;3.31;100.00;100255.75;4980468;28;20030;-77
2022/03/30 05:46:09;;;;;;;66.75;20.83;;;;;;;3.28;100.00;100258.63;5002528;28;20052;-76
2022/03/30 05:48:35;;;;;;;48.95;19.05;;;;;;;3.27;100.00;100260.47;4966507;28;20585;-76
2022/03/30 05:51:00;;;;;;;54.30;20.30;;;;;;;3.27;100.00;100259.63;5000579;28;20031;-76
2022/03/30 05:53:26;;;;;;;57.13;20.60;;;;;;;3.38;100.00;100253.56;5000436;28;20030;-76
2022/03/30 05:55:52;;;;;;;50.97;19.60;;;;;;;3.46;100.00;100262.09;4980965;28;20034;-76
2022/03/30 05:58:17;;;;;;;67.45;22.45;;;;;;;3.38;100.00;100250.84;4978851;28;20474;-75
2022/03/30 06:00:43;;;;;;;49.60;19.15;;;;;;;3.51;100.00;100257.31;4998648;28;20117;-76
2022/03/30 06:03:10;;;;;;;58.92;21.00;;;;;;;3.57;100.00;100259.63;4985244;28;20026;-77
2022/03/30 06:05:36;;;;;;;53.38;20.42;;;;;;;3.58;100.00;100263.22;4967903;28;20073;-76
2022/03/30 06:08:02;;;;;;;55.60;19.67;;;;;;;3.58;100.00;100257.81;4998904;28;20026;-76
2022/03/30 06:10:28;;;;;;;62.55;21.20;;;;;;;3.57;100.00;100258.75;4987323;28;20033;-76
2022/03/30 06:12:57;;;;;;;54.55;19.40;;;;;;;3.67;100.00;100258.13;4989635;28;20034;-77
2022/03/30 06:15:24;;;;;;;59.03;19.83;;;;;;;3.71;100.00;100266.94;5000986;28;20044;-76
2022/03/30 06:17:53;;;;;;;52.70;19.17;;;;;;;3.82;100.00;100268.97;5009985;28;20505;-77
2022/03/30 06:20:19;;;;;;;57.65;20.27;;;;;;;3.88;100.00;100262.34;4990353;28;20045;-78
2022/03/30 06:22:44;;;;;;;46.47;19.08;;;;;;;4.08;100.00;100256.53;4991114;28;20041;-75
2022/03/30 06:25:11;;;;;;;55.55;20.02;;;;;;;4.35;100.00;100270.22;4973551;28;20137;-76
2022/03/30 06:27:38;;;;;;;59.10;19.60;;;;;;;4.44;100.00;100271.47;4981746;28;20040;-77
2022/03/30 06:30:05;;;;;;;55.50;20.13;;;;;;;4.58;100.00;100271.47;4981917;28;20029;-76
2022/03/30 06:32:30;;;;;;;57.67;19.80;;;;;;;4.78;100.00;100264.75;4975492;28;20077;-77
2022/03/30 06:34:56;;;;;;;55.67;20.25;;;;;;;4.88;100.00;100270.47;4983217;28;20070;-77
2022/03/30 06:37:22;;;;;;;52.05;19.95;;;;;;;4.86;100.00;100280.56;5006142;28;20542;-76
2022/03/30 06:39:49;;;;;;;49.65;18.20;;;;;;;5.01;100.00;100275.09;4991108;28;20113;-75
2022/03/30 06:42:16;;;;;;;64.15;18.15;;;;;;;4.99;100.00;100269.78;4969540;28;20081;-75
2022/03/30 06:44:42;;;;;;;51.10;18.95;;;;;;;5.19;100.00;100276.59;4984571;28;20453;-74
2022/03/30 06:47:09;;;;;;;48.25;19.55;;;;;;;5.30;100.00;100281.31;5006696;28;20030;-75
2022/03/30 06:49:37;;;;;;;50.72;18.98;;;;;;;5.23;100.00;100275.44;4991589;28;20033;-77
2022/03/30 06:52:04;;;;;;;55.03;19.75;;;;;;;5.29;100.00;100279.56;4985465;28;20026;-76
2022/03/30 06:54:30;;;;;;;59.53;18.45;;;;;;;5.41;100.00;100270.63;5003588;28;20089;-76
2022/03/30 06:56:56;;;;;;;51.85;17.75;;;;;;;5.64;100.00;100273.59;4999551;28;20034;-77
2022/03/30 06:59:21;;;;;;;40.40;18.33;;;;;;;5.63;100.00;100267.31;4988165;28;20030;-75
2022/03/30 07:01:47;;;;;;;41.60;17.42;;;;;;;5.77;100.00;100262.78;4984838;28;20034;-76
2022/03/30 07:04:13;;;;;;;40.47;17.77;;;;;;;6.07;100.00;100262.53;4971130;28;20057;-77
2022/03/30 07:10:14;;;;;;;48.72;17.92;;;;;;;6.36;100.00;100262.31;4990341;28;20030;-77
2022/03/30 07:12:09;;;;;;;48.85;16.65;;;;;;;6.33;100.00;100271.59;5002454;28;20032;-77
2022/03/30 07:14:34;;;;;;;49.50;16.92;;;;;;;6.57;100.00;100268.06;4994227;28;20537;-77
2022/03/30 07:17:00;;;;;;;47.80;18.90;;;;;;;6.64;100.00;100269.38;4999701;28;20071;-77
2022/03/30 07:19:25;;;;;;;49.92;17.30;;;;;;;6.67;100.00;100260.97;4963943;28;20482;-77
2022/03/30 07:21:51;;;;;;;47.90;17.63;;;;;;;6.62;100.00;100250.47;4983776;28;20093;-77
2022/03/30 07:24:16;;;;;;;49.60;18.15;;;;;;;6.90;100.00;100263.88;4970446;28;20125;-78
2022/03/30 07:26:42;;;;;;;55.22;18.55;;;;;;;7.21;100.00;100256.16;4989479;28;20034;-77
2022/03/30 07:29:07;;;;;;;41.83;17.23;;;;;;;7.31;100.00;100255.38;4988083;28;20062;-77
2022/03/30 07:31:32;;;;;;;45.40;17.35;;;;;;;7.05;100.00;100260.03;4975938;28;20030;-77
2022/03/30 07:33:58;;;;;;;42.22;17.77;;;;;;;7.04;100.00;100255.56;4975098;28;20049;-78
2022/03/30 07:36:23;;;;;;;47.20;18.33;;;;;;;7.40;100.00;100255.66;4966341;28;20026;-77
2022/03/30 07:38:49;;;;;;;48.63;19.25;;;;;;;7.64;100.00;100258.34;4985094;28;20554;-79
2022/03/30 07:41:14;;;;;;;47.97;16.48;;;;;;;7.79;100.00;100254.47;4990823;28;20031;-77
2022/03/30 07:43:40;;;;;;;38.15;16.77;;;;;;;7.88;100.00;100252.88;4981518;28;20511;-77
2022/03/30 07:46:08;;;;;;;58.47;19.40;;;;;;;7.64;100.00;100245.63;4983923;28;20034;-77
2022/03/30 07:48:33;;;;;;;42.92;16.58;;;;;;;7.64;100.00;100252.91;5006978;28;20027;-77
2022/03/30 07:50:58;;;;;;;52.47;17.23;;;;;;;7.90;100.00;100253.63;4987230;28;20089;-77
2022/03/30 07:53:24;;;;;;;39.53;16.90;;;;;;;8.15;100.00;100248.97;4974911;28;20187;-77
2022/03/30 07:55:49;;;;;;;42.72;16.52;;;;;;;8.69;100.00;100240.13;4984654;28;20065;-77
2022/03/30 07:58:15;;;;;;;35.58;14.95;;;;;;;8.82;100.00;100249.06;4974619;28;20486;-77
2022/03/30 08:00:41;;;;;;;42.85;16.27;;;;;;;8.47;100.00;100249.16;4971315;28;20405;-77
2022/03/30 08:03:07;;;;;;;38.78;15.43;;;;;;;9.34;100.00;100242.97;4989848;28;20081;-77
2022/03/30 08:05:32;;;;;;;34.28;15.32;;;;;;;9.35;100.00;100256.50;4991013;28;20398;-77
2022/03/30 08:07:58;;;;;;;44.97;15.80;;;;;;;9.59;100.00;100241.75;4984548;28;20049;-77
2022/03/30 08:10:23;;;;;;;40.42;15.82;;;;;;;9.75;99.49;100244.94;4982676;28;20190;-77
2022/03/30 08:12:49;;;;;;;45.45;16.30;;;;;;;10.05;97.67;100243.31;4987641;28;20049;-78
2022/03/30 08:15:15;;;;;;;40.53;15.60;;;;;;;9.91;99.68;100240.88;4977878;28;20069;-78
2022/03/30 08:17:42;;;;;;;31.40;14.43;;;;;;;10.16;97.74;100242.34;4993586;28;20490;-77
2022/03/30 08:20:08;;;;;;;32.42;13.02;;;;;;;10.56;94.91;100246.19;4984895;28;20038;-77
2022/03/30 08:22:34;;;;;;;38.63;14.20;;;;;;;10.87;92.96;100251.66;4981190;28;20038;-78
2022/03/30 08:25:03;;;;;;;40.20;14.02;;;;;;;10.84;92.38;100239.13;4990883;28;20517;-77
2022/03/30 08:27:31;;;;;;;31.58;14.07;;;;;;;11.18;91.93;100245.16;4987664;28;20058;-76
2022/03/30 08:29:58;;;;;;;24.55;12.73;;;;;;;11.35;90.86;100242.72;4987392;28;20038;-76
2022/03/30 08:32:23;;;;;;;30.85;13.80;;;;;;;11.18;90.67;100242.41;4985853;28;20030;-77
2022/03/30 08:34:51;;;;;;;36.55;13.85;;;;;;;11.19;91.17;100246.88;4982526;28;20074;-77
2022/03/30 08:37:16;;;;;;;33.97;13.23;;;;;;;11.58;89.55;100244.19;4991831;28;20433;-77
2022/03/30 08:39:42;;;;;;;35.15;13.38;;;;;;;11.06;91.05;100240.78;4992183;28;20031;-77
2022/03/30 08:42:09;;;;;;;29.15;13.15;;;;;;;11.54;86.29;100245.50;4990817;28;20062;-77
2022/03/30 08:44:36;;;;;;;33.03;12.13;;;;;;;11.85;86.23;100233.50;4988942;28;20027;-78
2022/03/30 08:47:02;;;;;;;32.20;13.40;;;;;;;12.00;87.43;100237.56;4986182;28;20491;-77
2022/03/30 08:49:33;;;;;;;27.88;12.55;;;;;;;11.71;86.83;100232.06;4985866;28;20026;-77
2022/03/30 08:51:59;;;;;;;31.88;13.13;;;;;;;12.01;84.51;100243.94;4981421;28;20033;-77
2022/03/30 08:54:24;;;;;;;40.30;13.43;;;;;;;12.22;84.91;100241.88;4988412;28;20113;-77
2022/03/30 08:56:50;;;;;;;27.77;12.57;;;;;;;12.43;84.42;100238.03;4986356;28;20058;-77
2022/03/30 08:59:19;;;;;;;29.58;13.68;;;;;;;12.01;85.35;100243.94;4990274;28;20030;-77
2022/03/30 09:01:45;;;;;;;33.40;13.45;;;;;;;11.30;86.33;100239.56;4991878;28;20037;-77
2022/03/30 09:04:13;;;;;;;33.50;12.77;;;;;;;11.59;86.26;100228.59;4975147;28;20049;-77
2022/03/30 09:06:46;;;;;;;33.10;12.75;;;;;;;11.74;85.17;100235.41;4971607;28;20493;-77
2022/03/30 09:09:14;;;;;;;29.88;12.40;;;;;;;12.02;85.99;100237.41;4980369;28;20046;-77
2022/03/30 09:11:44;;;;;;;32.83;13.63;;;;;;;11.92;84.17;100240.16;4977684;28;20026;-77
2022/03/30 09:14:11;;;;;;;32.40;12.13;;;;;;;12.32;84.86;100237.22;4972227;28;20549;-77
2022/03/30 09:16:42;;;;;;;32.85;10.90;;;;;;;13.10;77.71;100243.41;4973509;28;20106;-77
2022/03/30 09:19:09;;;;;;;27.02;12.80;;;;;;;12.35;84.12;100236.06;4971246;28;20043;-77
2022/03/30 09:21:53;;;;;;;25.50;12.30;;;;;;;12.49;82.82;100237.47;4971045;28;20027;-77
2022/03/30 09:24:28;;;;;;;30.85;12.68;;;;;;;12.05;82.99;100234.38;4981489;28;20058;-77
2022/03/30 09:26:55;;;;;;;30.40;13.32;;;;;;;12.15;85.30;100227.03;4979748;28;20109;-77
2022/03/30 09:29:23;;;;;;;33.20;13.27;;;;;;;12.24;84.48;100239.84;4989384;28;20043;-77
2022/03/30 09:31:52;;;;;;;33.28;12.38;;;;;;;12.25;84.68;100229.75;4992529;28;20518;-77
2022/03/30 09:34:19;;;;;;;32.15;12.75;;;;;;;11.73;85.20;100230.06;4983387;28;20046;-77
2022/03/30 09:36:46;;;;;;;30.35;13.63;;;;;;;11.91;84.88;100225.59;4980344;28;20498;-77
2022/03/30 09:39:32;;;;;;;28.83;12.98;;;;;;;12.23;85.42;100224.41;4964841;28;20414;-77
2022/03/30 09:41:59;;;;;;;28.50;12.73;;;;;;;12.71;82.90;100228.00;4980410;28;20087;-77
2022/03/30 09:44:29;;;;;;;27.90;13.40;;;;;;;12.20;82.38;100226.53;4985541;28;20524;-77
2022/03/30 09:47:05;;;;;;;26.73;13.85;;;;;;;12.95;81.62;100226.56;4985181;28;20107;-78
2022/03/30 09:49:34;;;;;;;26.77;12.63;;;;;;;12.80;79.70;100207.84;4983430;28;20054;-76
2022/03/30 09:52:00;;;;;;;27.42;13.35;;;;;;;12.34;84.96;100217.84;4979473;28;20085;-77
2022/03/30 09:54:42;;;;;;;34.28;14.05;;;;;;;12.59;83.43;100216.34;4979610;28;20069;-78
2022/03/30 09:57:10;;;;;;;37.28;13.45;;;;;;;13.06;80.58;100207.13;4983958;28;20379;-76
2022/03/30 09:59:58;;;;;;;24.95;12.85;;;;;;;12.98;79.91;100205.16;4983151;28;20030;-76
2022/03/30 10:02:25;;;;;;;25.92;13.55;;;;;;;12.81;80.29;100203.22;5004073;28;20495;-76
2022/03/30 10:04:51;;;;;;;44.67;14.30;;;;;;;12.40;82.24;100199.94;4984143;28;20042;-76
2022/03/30 10:07:17;;;;;;;31.42;13.23;;;;;;;12.47;82.78;100190.06;4991834;28;20391;-76
2022/03/30 10:09:43;;;;;;;36.90;14.70;;;;;;;12.26;83.21;100196.63;4984115;28;20090;-76
2022/03/30 10:12:09;;;;;;;27.88;14.02;;;;;;;12.44;81.84;100176.63;4978273;28;20109;-76
2022/03/30 10:14:36;;;;;;;30.90;13.93;;;;;;;12.37;83.56;100194.75;4963743;28;20134;-76
2022/03/30 10:17:01;;;;;;;38.22;13.70;;;;;;;12.75;81.74;100176.38;4980662;28;20450;-76
2022/03/30 10:19:28;;;;;;;27.83;13.73;;;;;;;13.35;80.12;100179.47;4978832;28;20037;-76
2022/03/30 10:22:31;;;;;;;30.35;13.57;;;;;;;13.14;79.16;100177.00;4991281;28;20682;-76
2022/03/30 10:25:14;;;;;;;28.63;13.20;;;;;;;12.46;79.93;100177.34;4993387;28;20585;-76
2022/03/30 10:27:51;;;;;;;31.10;12.68;;;;;;;13.60;76.82;100172.31;4990346;28;20034;-76
2022/03/30 10:30:24;;;;;;;36.40;14.95;;;;;;;13.33;79.68;100172.41;4977357;28;20033;-77
2022/03/30 10:32:55;;;;;;;26.60;13.70;;;;;;;13.75;76.88;100171.75;4979901;28;20100;-78
2022/03/30 10:35:21;;;;;;;29.17;13.40;;;;;;;13.14;79.37;100165.16;4982863;28;20331;-76
2022/03/30 10:37:57;;;;;;;28.27;13.10;;;;;;;12.95;80.86;100160.63;4999465;28;20057;-78
2022/03/30 10:40:26;;;;;;;26.83;12.07;;;;;;;13.23;77.21;100154.06;4989019;28;20411;-77
2022/03/30 10:42:53;;;;;;;30.27;13.55;;;;;;;12.88;79.52;100163.13;4995082;28;20073;-78
2022/03/30 10:45:24;;;;;;;26.58;13.30;;;;;;;13.56;76.70;100150.78;4991254;28;20038;-77
2022/03/30 10:48:06;;;;;;;24.73;11.80;;;;;;;12.79;79.31;100159.44;4991730;28;20432;-78
2022/03/30 10:50:34;;;;;;;26.30;11.85;;;;;;;13.17;78.25;100143.69;4986623;28;20513;-78
2022/03/30 10:53:00;;;;;;;26.20;13.10;;;;;;;13.11;80.87;100151.72;4989440;28;20045;-78
2022/03/30 10:55:25;;;;;;;33.58;13.32;;;;;;;13.82;75.64;100144.47;4982687;28;20038;-77
2022/03/30 10:58:03;;;;;;;25.27;12.32;;;;;;;13.12;77.78;100137.81;4993717;28;20042;-77
2022/03/30 11:00:34;;;;;;;29.30;12.55;;;;;;;12.92;76.71;100144.44;4994106;28;20034;-77
2022/03/30 11:03:25;;;;;;;26.92;13.05;;;;;;;12.75;80.88;100136.00;4989964;28;20039;-78
2022/03/30 11:06:05;;;;;;;25.23;12.40;;;;;;;13.29;76.34;100130.59;4989987;28;20034;-78
2022/03/30 11:08:33;;;;;;;23.45;12.63;;;;;;;13.38;77.66;100131.53;4978365;28;20039;-78
2022/03/30 11:11:03;;;;;;;20.65;10.80;;;;;;;13.77;72.06;100129.31;4976625;28;20466;-78
2022/03/30 11:13:30;;;;;;;24.25;11.80;;;;;;;12.90;74.49;100124.50;4975248;28;20034;-78
2022/03/30 11:16:04;;;;;;;26.17;12.52;;;;;;;12.80;78.26;100122.69;4990977;28;20041;-78